Terminal Aerodrome Forecast
Issued by NWS

Home | Current Version | Previous Version | Text Only | Print | Product List | Glossary On
Versions: 1 2 3 4 5 6 7 8 9 10 11 12 13 14 15
000
FTUS46 KPDT 201700
TAFALW
TAF
KALW 201720Z 2018/2118 21010KT P6SM FEW060 BKN250
     FM202100 24008KT P6SM FEW060 FEW150 BKN200
     FM210200 08005KT P6SM SCT150 BKN200
     FM210900 12006KT P6SM SCT120 SCT150 OVC200
     FM211400 17007KT P6SM SCT090 BKN110=

USA.gov is the U.S. government's official web portal to all federal, state and local government web resources and services.